Data for 10/18/2008

Time Sea-Level Adjusted Pressure Absolute Pressure Temperature Relative Humidity Dew Point   
(mb) (inHg) (mb) (inHg) (C) (F) (%) (C) (F)
00:05 1021 30.15 851 25.13 9.4 48.9 52 0.1 32.2
00:10 1021 30.15 851 25.13 8.9 48.1 54 0.1 32.2
00:15 1021 30.15 851 25.13 8.7 47.6 54 0 32
00:20 1021 30.15 851 25.13 8.9 47.9 53 -0.1 31.8
00:25 1021 30.15 851 25.13 9 48.3 52 -0.3 31.4
00:30 1021 30.15 850 25.1 9 48.2 52 -0.2 31.6
00:35 1021 30.15 850 25.1 9 48.1 52 -0.3 31.4
00:40 1021 30.15 850 25.1 9.1 48.4 51 -0.4 31.2
00:45 1021 30.15 850 25.1 9.6 49.2 50 -0.3 31.5
00:50 1021 30.15 850 25.1 9.6 49.3 49 -0.5 31.1
00:55 1021 30.15 850 25.1 9.9 49.8 49 -0.2 31.6
01:00 1021 30.15 850 25.1 9.7 49.4 50 -0.3 31.5
01:05 1021 30.15 850 25.1 9.3 48.7 53 0.1 32.2
01:10 1021 30.15 850 25.1 8.3 46.9 56 0 32.1
01:15 1021 30.15 850 25.1 8.2 46.7 54 -0.4 31.2
01:20 1021 30.15 850 25.1 8.6 47.4 53 -0.4 31.3
01:25 1021 30.15 850 25.1 9 48.2 51 -0.5 31.2
01:30 1021 30.15 850 25.1 9 48.1 52 -0.2 31.6
01:35 1021 30.15 850 25.1 8.6 47.5 54 -0.2 31.6
01:40 1021 30.15 850 25.1 8.7 47.7 53 -0.2 31.6
01:45 1021 30.15 850 25.1 8.6 47.4 54 -0.2 31.7
01:50 1021 30.15 850 25.1 8.6 47.5 52 -0.5 31.1
01:55 1021 30.15 850 25.1 9.2 48.6 51 -0.3 31.5
02:00 1021 30.15 850 25.1 9.1 48.4 51 -0.4 31.2
02:05 1020 30.12 850 25.1 9.4 48.8 51 -0.3 31.4
02:10 1020 30.12 850 25.1 9.2 48.6 51 -0.3 31.4
02:15 1020 30.12 850 25.1 9.1 48.4 52 -0.1 31.8
02:20 1020 30.12 850 25.1 9 48.2 52 -0.4 31.3
02:25 1020 30.12 850 25.1 9.2 48.6 51 -0.4 31.3
02:30 1020 30.12 850 25.1 9.2 48.6 51 -0.4 31.2
02:35 1020 30.12 850 25.1 9.3 48.7 51 -0.4 31.3
02:40 1020 30.12 850 25.1 9.3 48.8 52 -0.1 31.8
02:45 1020 30.12 849 25.07 9.3 48.7 52 -0.2 31.7
02:50 1020 30.12 849 25.07 8.9 48.1 53 -0.2 31.6
02:55 1020 30.12 849 25.07 8.9 48 52 -0.4 31.3
03:00 1020 30.12 849 25.07 8.7 47.6 54 -0.1 31.8
03:05 1020 30.12 849 25.07 8.6 47.5 53 -0.3 31.4
03:10 1020 30.12 849 25.07 8.4 47.2 55 -0.1 31.9
03:15 1020 30.12 849 25.07 8.3 47 54 -0.4 31.3
03:20 1020 30.12 849 25.07 8.7 47.6 53 -0.4 31.2
03:25 1020 30.12 849 25.07 8.9 48 53 -0.3 31.5
03:30 1020 30.12 849 25.07 9.3 48.7 50 -0.5 31.2
03:35 1020 30.12 849 25.07 9.5 49.1 50 -0.4 31.3
03:40 1020 30.12 849 25.07 9.5 49.1 50 -0.3 31.5
03:45 1020 30.12 849 25.07 9.1 48.4 52 -0.1 31.8
03:50 1020 30.12 849 25.07 8.7 47.7 54 -0.1 31.7
03:55 1020 30.12 849 25.07 8.6 47.5 54 -0.1 31.8
04:00 1020 30.12 849 25.07 8.5 47.2 55 -0 32
04:05 1020 30.12 849 25.07 8.2 46.7 55 -0.3 31.4
04:10 1020 30.12 849 25.07 8.5 47.3 54 -0.2 31.6
04:15 1020 30.12 849 25.07 8.8 47.8 53 -0.3 31.4
04:20 1020 30.12 849 25.07 8.9 48 53 -0.2 31.7
04:25 1020 30.12 849 25.07 8.9 47.9 53 -0.2 31.6
04:30 1020 30.12 849 25.07 8.8 47.9 52 -0.5 31.1
04:35 1020 30.12 849 25.07 9.4 48.8 51 -0.3 31.5
04:40 1020 30.12 849 25.07 9.5 49.2 51 -0.2 31.7
04:45 1020 30.12 849 25.07 9 48.1 53 0 32.1
04:50 1020 30.12 849 25.07 8.9 48 52 -0.4 31.4
04:55 1020 30.12 849 25.07 9.3 48.8 50 -0.5 31.2
05:00 1020 30.12 849 25.07 9.4 48.9 51 -0.1 31.7
05:05 1020 30.12 849 25.07 9.4 48.8 50 -0.6 30.9
05:10 1019 30.09 849 25.07 10 50.1 47 -0.6 30.8
05:15 1019 30.09 849 25.07 10.1 50.2 49 -0.1 31.9
05:20 1019 30.09 848 25.04 10.2 50.3 48 -0.3 31.5
05:25 1019 30.09 848 25.04 10.1 50.2 49 -0.1 31.8
05:30 1019 30.09 848 25.04 9.7 49.4 51 0.2 32.4
05:35 1019 30.09 848 25.04 9.3 48.7 51 -0.4 31.3
05:40 1019 30.09 848 25.04 9.7 49.5 49 -0.3 31.5
05:45 1019 30.09 848 25.04 10.1 50.1 48 -0.4 31.3
05:50 1019 30.09 848 25.04 10 50 48 -0.4 31.3
05:55 1019 30.09 848 25.04 10.4 50.8 48 -0.2 31.7
06:00 1019 30.09 848 25.04 9.8 49.6 49 -0.3 31.5
06:05 1019 30.09 848 25.04 9.9 49.8 49 -0.2 31.7
06:10 1019 30.09 848 25.04 10.2 50.4 47 -0.4 31.2
06:15 1019 30.09 848 25.04 10 49.9 51 0.4 32.7
06:20 1019 30.09 848 25.04 8.9 47.9 54 0.1 32.2
06:25 1019 30.09 848 25.04 8.8 47.8 53 -0.3 31.4
06:30 1019 30.09 848 25.04 9 48.3 54 0.2 32.4
06:35 1019 30.09 848 25.04 8.8 47.8 53 -0.3 31.5
06:40 1019 30.09 848 25.04 8.8 47.9 53 -0.3 31.5
06:45 1019 30.09 848 25.04 9 48.1 53 -0.1 31.8
06:50 1019 30.09 848 25.04 9.2 48.6 51 -0.4 31.3
06:55 1019 30.09 848 25.04 9.3 48.8 52 -0.1 31.8
07:00 1019 30.09 848 25.04 9.5 49.2 49 -0.6 30.9
07:05 1019 30.09 848 25.04 9.8 49.7 50 -0.1 31.8
07:10 1019 30.09 848 25.04 9.3 48.8 51 -0.3 31.5
07:15 1019 30.09 848 25.04 9 48.1 52 -0.4 31.3
07:20 1019 30.09 848 25.04 9.1 48.4 49 -1 30.3
07:25 1019 30.09 848 25.04 10 50 47 -0.7 30.7
07:30 1019 30.09 848 25.04 10.2 50.4 48 -0.3 31.5
07:35 1019 30.09 848 25.04 9.9 49.7 48 -0.5 31
07:40 1019 30.09 848 25.04 9.7 49.4 49 -0.5 31.1
07:45 1019 30.09 848 25.04 9.4 48.9 51 -0.2 31.6
07:50 1019 30.09 848 25.04 8.9 48 52 -0.3 31.4
07:55 1019 30.09 848 25.04 8.8 47.8 52 -0.4 31.2
08:00 1019 30.09 848 25.04 8.6 47.5 53 -0.5 31.1
08:05 1019 30.09 848 25.04 8.6 47.4 53 -0.5 31.1
08:10 1018 30.06 848 25.04 8.8 47.9 50 -0.9 30.3
08:15 1018 30.06 848 25.04 9.5 49 49 -0.6 30.9
08:20 1018 30.06 848 25.04 9.3 48.8 49 -0.8 30.6
08:25 1018 30.06 848 25.04 9.3 48.7 51 -0.2 31.7
08:30 1018 30.06 848 25.04 8.5 47.3 52 -0.7 30.7
08:35 1018 30.06 848 25.04 8.7 47.6 51 -0.9 30.4
08:40 1018 30.06 848 25.04 9.5 49.1 50 -0.5 31.1
08:45 1018 30.06 848 25.04 8.8 47.9 52 -0.5 31.2
08:50 1018 30.06 848 25.04 8.8 47.8 51 -0.9 30.4
08:55 1019 30.09 848 25.04 9.2 48.6 49 -0.9 30.5
09:00 1019 30.09 848 25.04 9.7 49.4 48 -0.7 30.7
09:05 1018 30.06 848 25.04 10.1 50.2 46 -0.8 30.6
09:10 1019 30.09 848 25.04 10.8 51.5 45 -0.6 31
09:15 1018 30.06 848 25.04 11.2 52.1 45 -0.2 31.6
09:20 1018 30.06 848 25.04 11.7 53 43 -0.3 31.4
09:25 1018 30.06 848 25.04 11.7 53.1 44 -0.2 31.7
09:30 1019 30.09 848 25.04 12.4 54.3 41 -0.3 31.4
09:35 1018 30.06 848 25.04 13 55.4 40 -0.4 31.4
09:40 1018 30.06 848 25.04 13.2 55.8 40 -0.1 31.9
09:45 1018 30.06 848 25.04 13.6 56.5 39 -0.1 31.9
09:50 1018 30.06 848 25.04 13.6 56.5 39 0 32
09:55 1018 30.06 848 25.04 13.5 56.4 42 0.9 33.6
10:00 1018 30.06 847 25.01 13.1 55.6 43 0.9 33.5
10:05 1018 30.06 847 25.01 13.3 55.9 41 0.4 32.7
10:10 1018 30.06 847 25.01 13.8 56.8 39 -0 32
10:15 1018 30.06 848 25.04 14.8 58.7 36 -0 32
10:20 1018 30.06 848 25.04 14.5 58 37 -0.1 31.8
10:25 1018 30.06 847 25.01 15.1 59.2 35 -0.2 31.6
10:30 1018 30.06 847 25.01 15.7 60.3 34 -0 31.9
10:35 1018 30.06 847 25.01 15.7 60.3 34 -0.1 31.8
10:40 1018 30.06 847 25.01 16.5 61.7 31 -0.7 30.7
10:45 1018 30.06 847 25.01 16.8 62.2 29 -1.1 30
10:50 1018 30.06 847 25.01 16.1 60.9 30 -1.3 29.7
10:55 1018 30.06 847 25.01 16.5 61.7 31 -0.6 30.9
11:00 1018 30.06 847 25.01 16.8 62.3 29 -1.2 29.9
11:05 1018 30.06 847 25.01 17.2 62.9 29 -1 30.2
11:10 1018 30.06 847 25.01 17.7 63.8 27 -1.5 29.2
11:15 1018 30.06 847 25.01 17.5 63.4 28 -1.1 30
11:20 1018 30.06 847 25.01 17.4 63.4 28 -1.1 30.1
11:25 1018 30.06 847 25.01 18.3 64.9 26 -1.6 29.1
11:30 1018 30.06 847 25.01 18.7 65.6 26 -1.1 30.1
11:35 1018 30.06 847 25.01 19.3 66.8 24 -1.4 29.5
11:40 1018 30.06 847 25.01 20 67.9 24 -0.8 30.5
11:45 1018 30.06 847 25.01 19.3 66.8 24 -1.5 29.3
11:50 1018 30.06 847 25.01 19.8 67.6 24 -1.1 30
11:55 1018 30.06 847 25.01 20.2 68.4 24 -0.9 30.4
12:00 1018 30.06 847 25.01 20.5 68.8 24 -0.7 30.7
12:05 1018 30.06 847 25.01 20.4 68.6 24 -0.9 30.4
12:10 1018 30.06 847 25.01 20.3 68.5 26 0.1 32.3
12:15 1018 30.06 847 25.01 20.2 68.4 24 -1.1 30
12:20 1018 30.06 847 25.01 19.8 67.6 25 -0.6 30.8
12:25 1018 30.06 847 25.01 20 68.1 25 -0.3 31.4
12:30 1018 30.06 847 25.01 20.5 69 23 -1.2 29.9
12:35 1018 30.06 847 25.01 20.9 69.7 21 -2 28.4
12:40 1018 30.06 847 25.01 21.3 70.3 20 -2.6 27.4
12:45 1018 30.06 847 25.01 21 69.8 19 -3.1 26.3
12:50 1017 30.03 847 25.01 21.1 70 19 -3.4 25.8
12:55 1017 30.03 847 25.01 21.3 70.4 18 -3.4 25.8
13:00 1017 30.03 846 24.98 21.7 71.1 16 -5 23
13:05 1017 30.03 846 24.98 21.7 71.1 18 -3.4 25.9
13:10 1017 30.03 846 24.98 21.7 71.1 15 -5.6 22
13:15 1017 30.03 846 24.98 21.6 70.9 17 -4.4 24.1
13:20 1017 30.03 846 24.98 21.9 71.5 15 -6.1 21.1
13:25 1017 30.03 846 24.98 22.1 71.8 15 -5.5 22.2
13:30 1017 30.03 846 24.98 22.4 72.4 15 -5.4 22.3
13:35 1017 30.03 846 24.98 22.4 72.2 14 -5.9 21.4
13:40 1017 30.03 846 24.98 22 71.6 14 -6.2 20.9
13:45 1017 30.03 846 24.98 22 71.5 14 -6.9 19.5
13:50 1016 30 846 24.98 21.7 71.1 14 -6.5 20.3
13:55 1016 30 846 24.98 21.6 70.9 15 -6.2 20.9
14:00 1016 30 846 24.98 21.6 70.8 15 -6.3 20.7
14:05 1016 30 845 24.95 21.3 70.4 15 -6.6 20.1
14:10 1016 30 845 24.95 21 69.7 15 -7 19.5
14:15 1016 30 845 24.95 20.6 69.2 15 -6.8 19.7
14:20 1016 30 845 24.95 20.4 68.7 15 -7.2 19.1
14:25 1016 30 845 24.95 20.3 68.5 15 -7.3 18.9
14:30 1016 30 845 24.95 20.3 68.5 15 -7.2 19
14:35 1016 30 845 24.95 20.3 68.6 14 -7.6 18.3
14:40 1016 30 845 24.95 21.1 69.9 15 -6.5 20.3
14:45 1016 30 845 24.95 21.7 71.1 14 -6.9 19.6
14:50 1016 30 845 24.95 22.2 72 14 -6.6 20.1
14:55 1016 30 845 24.95 22.2 71.9 14 -6.3 20.6
15:00 1016 30 845 24.95 22 71.6 18 -3.4 25.9
15:05 1016 30 845 24.95 22 71.6 18 -2.9 26.7
15:10 1016 30 845 24.95 22.4 72.3 18 -2.9 26.8
15:15 1016 30 845 24.95 22.1 71.7 18 -3.1 26.5
15:20 1016 30 845 24.95 22 71.6 18 -3.3 26.1
15:25 1016 30 845 24.95 22.2 72 18 -3.3 26
15:30 1016 30 845 24.95 22.1 71.8 18 -3.4 25.9
15:35 1016 30 845 24.95 21.7 71.1 18 -3.7 25.4
15:40 1016 30 845 24.95 21.9 71.3 18 -3.3 26.1
15:45 1016 30 845 24.95 21.8 71.3 18 -3.5 25.8
15:50 1016 30 845 24.95 21.9 71.3 18 -3.2 26.2
15:55 1016 30 845 24.95 22.1 71.8 18 -3.2 26.2
16:00 1016 30 845 24.95 22.4 72.3 17 -3.8 25.2
16:05 1016 30 845 24.95 22.4 72.4 17 -3.5 25.8
16:10 1016 30 845 24.95 22.3 72.1 14 -6.5 20.2
16:15 1016 30 845 24.95 22 71.6 14 -6.8 19.7
16:20 1016 30 845 24.95 21.8 71.3 14 -6.4 20.4
16:25 1016 30 845 24.95 21.8 71.3 14 -6.7 20
16:30 1016 30 845 24.95 21.8 71.2 14 -6.7 19.9
16:35 1016 30 845 24.95 21.7 71.1 14 -6.4 20.5
16:40 1016 30 845 24.95 21.6 70.9 14 -7 19.3
16:45 1016 30 845 24.95 21.5 70.7 15 -6.1 20.9
16:50 1016 30 845 24.95 21.6 70.9 14 -6.6 20.1
16:55 1016 30 845 24.95 21.6 70.8 15 -6.4 20.5
17:00 1016 30 845 24.95 21.5 70.7 14 -6.6 20.1
17:05 1016 30 845 24.95 21.5 70.7 14 -6.6 20.1
17:10 1016 30 845 24.95 21.2 70.1 21 -1.5 29.3
17:15 1016 30 845 24.95 20.5 69 23 -1.4 29.5
17:20 1016 30 845 24.95 20.5 68.8 23 -1.1 30
17:25 1016 30 845 24.95 20.3 68.6 24 -0.6 30.9
17:30 1016 30 845 24.95 19.7 67.5 26 -0.1 31.8
17:35 1016 30 845 24.95 19 66.2 27 -0.1 31.8
17:40 1016 30 845 24.95 18.7 65.6 28 0.2 32.3
17:45 1016 30 845 24.95 18.5 65.2 29 0 32.1
17:50 1016 30 845 24.95 18.5 65.4 29 0.3 32.5
17:55 1016 30 845 24.95 18.5 65.2 29 0 32.1
18:00 1016 30 845 24.95 18.2 64.8 29 0.2 32.4
18:05 1016 30 845 24.95 18.1 64.5 30 0.4 32.7
18:10 1016 30 845 24.95 17.7 63.9 31 0.5 32.9
18:15 1016 30 845 24.95 17.5 63.4 31 0.4 32.7
18:20 1016 30 845 24.95 17.1 62.8 32 0.6 33.1
18:25 1016 30 845 24.95 16.9 62.3 33 0.8 33.4
18:30 1016 30 845 24.95 16.4 61.5 37 1.8 35.2
18:35 1016 30 846 24.98 14.9 58.9 42 2.1 35.8
18:40 1016 30 846 24.98 14.2 57.6 42 1.6 34.9
18:45 1017 30.03 846 24.98 14 57.2 44 2.2 35.9
18:50 1017 30.03 846 24.98 13.7 56.7 42 1.2 34.2
18:55 1017 30.03 846 24.98 14.3 57.7 40 1.1 33.9
19:00 1017 30.03 846 24.98 14.9 58.7 40 1.3 34.4
19:05 1017 30.03 846 24.98 15 59 40 1.5 34.7
19:10 1017 30.03 846 24.98 15 59 41 1.8 35.3
19:15 1017 30.03 846 24.98 14.7 58.4 42 2.1 35.7
19:20 1017 30.03 846 24.98 14.5 58 44 2.4 36.4
19:25 1017 30.03 846 24.98 14.3 57.7 44 2.4 36.3
19:30 1017 30.03 846 24.98 14.1 57.3 46 2.6 36.7
19:35 1017 30.03 846 24.98 13.9 57 46 2.6 36.6
19:40 1017 30.03 846 24.98 13.7 56.7 47 2.7 36.9
19:45 1017 30.03 846 24.98 13.5 56.3 48 2.6 36.7
19:50 1017 30.03 847 25.01 13.1 55.6 52 3.5 38.2
19:55 1018 30.06 847 25.01 11.6 52.9 53 2.5 36.4
20:00 1018 30.06 847 25.01 11.3 52.3 54 2.4 36.3
20:05 1018 30.06 847 25.01 11.6 52.8 53 2.4 36.4
20:10 1018 30.06 847 25.01 11.5 52.6 54 2.6 36.7
20:15 1018 30.06 847 25.01 11.2 52.1 54 2.4 36.3
20:20 1018 30.06 847 25.01 11.5 52.7 54 2.5 36.5
20:25 1018 30.06 847 25.01 11.6 52.9 54 2.7 36.8
20:30 1018 30.06 847 25.01 11.1 52 57 3 37.5
20:35 1018 30.06 847 25.01 10.4 50.7 58 2.6 36.7
20:40 1018 30.06 847 25.01 10.5 50.9 57 2.4 36.3
20:45 1018 30.06 847 25.01 11 51.8 55 2.4 36.3
20:50 1018 30.06 847 25.01 11.5 52.7 53 2.4 36.3
20:55 1018 30.06 847 25.01 11.8 53.2 53 2.5 36.5
21:00 1018 30.06 847 25.01 11.7 53 53 2.6 36.6
21:05 1018 30.06 847 25.01 11.6 52.9 53 2.5 36.5
21:10 1018 30.06 847 25.01 11.4 52.6 54 2.6 36.6
21:15 1018 30.06 847 25.01 11.1 51.9 56 2.8 37
21:20 1018 30.06 847 25.01 10.6 51.1 55 2.1 35.8
21:25 1018 30.06 847 25.01 11.2 52.2 54 2.3 36.1
21:30 1018 30.06 847 25.01 11.2 52.2 55 2.5 36.5
21:35 1018 30.06 847 25.01 11 51.8 57 2.8 37
21:40 1018 30.06 848 25.04 10.1 50.2 59 2.6 36.7
21:45 1018 30.06 848 25.04 9.7 49.4 60 2.3 36.1
21:50 1018 30.06 848 25.04 9.5 49.1 60 2.1 35.8
21:55 1018 30.06 848 25.04 9.6 49.3 61 2.4 36.3
22:00 1018 30.06 848 25.04 9.1 48.3 63 2.5 36.4
22:05 1018 30.06 848 25.04 9 48.1 63 2.2 36
22:10 1019 30.09 848 25.04 9 48.2 62 2.2 35.9
22:15 1019 30.09 848 25.04 9.3 48.7 61 2.1 35.8
22:20 1019 30.09 848 25.04 9.3 48.8 61 2.3 36.1
22:25 1019 30.09 848 25.04 8.8 47.8 62 2 35.7
22:30 1019 30.09 848 25.04 8.4 47.1 63 1.7 35.1
22:35 1019 30.09 848 25.04 8.7 47.7 61 1.6 35
22:40 1019 30.09 848 25.04 9.1 48.3 60 1.7 35.1
22:45 1019 30.09 848 25.04 9.1 48.3 60 1.8 35.2
22:50 1019 30.09 848 25.04 8.9 48 61 1.9 35.4
22:55 1019 30.09 848 25.04 8.6 47.5 61 1.6 34.9
23:00 1019 30.09 848 25.04 8.7 47.6 62 1.8 35.3
23:05 1019 30.09 848 25.04 8.5 47.3 62 1.8 35.2
23:10 1019 30.09 848 25.04 8.3 46.9 63 1.7 35.1
23:15 1019 30.09 848 25.04 8.2 46.7 64 1.8 35.3
23:20 1019 30.09 848 25.04 7.6 45.7 66 1.7 35
23:25 1019 30.09 848 25.04 7.6 45.7 65 1.5 34.6
23:30 1019 30.09 848 25.04 7.2 44.9 68 1.6 34.9
23:35 1019 30.09 848 25.04 7 44.6 67 1.3 34.3
23:40 1019 30.09 848 25.04 7.1 44.7 67 1.3 34.4
23:45 1019 30.09 848 25.04 7.4 45.2 64 1.1 34
23:50 1019 30.09 848 25.04 7.8 46.1 63 1.3 34.3
23:55 1019 30.09 848 25.04 7.9 46.2 64 1.5 34.7
24:00 1019 30.09 848 25.04 7.7 45.9 65 1.6 34.9